sensor_id;sensor_type;location;lat;lon;timestamp;pressure;altitude;pressure_sealevel;temperature
65316;BMP280;51920;53.952;10.292;2022-09-09T00:04:37;100401.75;;;15.04
65316;BMP280;51920;53.952;10.292;2022-09-09T00:07:09;100394.06;;;14.99
65316;BMP280;51920;53.952;10.292;2022-09-09T00:12:53;100398.19;;;15.07
65316;BMP280;51920;53.952;10.292;2022-09-09T00:15:25;100400.91;;;15.07
65316;BMP280;51920;53.952;10.292;2022-09-09T00:20:43;100400.91;;;15.07
65316;BMP280;51920;53.952;10.292;2022-09-09T00:23:24;100395.44;;;15.07
65316;BMP280;51920;53.952;10.292;2022-09-09T00:26:04;100404.00;;;15.09
65316;BMP280;51920;53.952;10.292;2022-09-09T00:28:33;100395.44;;;15.07
65316;BMP280;51920;53.952;10.292;2022-09-09T00:31:18;100391.97;;;15.07
65316;BMP280;51920;53.952;10.292;2022-09-09T00:33:46;100389.63;;;15.05
65316;BMP280;51920;53.952;10.292;2022-09-09T00:36:14;100380.63;;;15.08
65316;BMP280;51920;53.952;10.292;2022-09-09T00:38:52;100385.34;;;15.08
65316;BMP280;51920;53.952;10.292;2022-09-09T00:54:33;100387.75;;;15.02
65316;BMP280;51920;53.952;10.292;2022-09-09T01:00:18;100385.47;;;15.00
65316;BMP280;51920;53.952;10.292;2022-09-09T01:05:36;100379.56;;;15.02
65316;BMP280;51920;53.952;10.292;2022-09-09T01:08:14;100369.88;;;15.01
65316;BMP280;51920;53.952;10.292;2022-09-09T01:10:50;100377.19;;;15.04
65316;BMP280;51920;53.952;10.292;2022-09-09T01:13:29;100376.09;;;15.01
65316;BMP280;51920;53.952;10.292;2022-09-09T01:16:04;100370.19;;;15.03
65316;BMP280;51920;53.952;10.292;2022-09-09T01:18:39;100377.97;;;15.04
65316;BMP280;51920;53.952;10.292;2022-09-09T01:27:22;100380.50;;;14.95
65316;BMP280;51920;53.952;10.292;2022-09-09T01:29:49;100382.06;;;14.93
65316;BMP280;51920;53.952;10.292;2022-09-09T01:32:41;100388.00;;;14.88
65316;BMP280;51920;53.952;10.292;2022-09-09T01:35:57;100363.31;;;14.75
65316;BMP280;51920;53.952;10.292;2022-09-09T01:37:57;100383.09;;;14.79
65316;BMP280;51920;53.952;10.292;2022-09-09T01:40:24;100378.91;;;14.74
65316;BMP280;51920;53.952;10.292;2022-09-09T01:42:51;100372.34;;;14.72
65316;BMP280;51920;53.952;10.292;2022-09-09T01:45:17;100380.06;;;14.73
65316;BMP280;51920;53.952;10.292;2022-09-09T01:47:42;100375.97;;;14.65
65316;BMP280;51920;53.952;10.292;2022-09-09T01:50:34;100374.41;;;14.64
65316;BMP280;51920;53.952;10.292;2022-09-09T01:53:01;100373.56;;;14.67
65316;BMP280;51920;53.952;10.292;2022-09-09T01:55:38;100381.03;;;14.67
65316;BMP280;51920;53.952;10.292;2022-09-09T02:01:17;100386.00;;;14.68
65316;BMP280;51920;53.952;10.292;2022-09-09T02:03:49;100375.09;;;14.68
65316;BMP280;51920;53.952;10.292;2022-09-09T02:06:30;100376.25;;;14.71
65316;BMP280;51920;53.952;10.292;2022-09-09T02:09:10;100369.59;;;14.72
65316;BMP280;51920;53.952;10.292;2022-09-09T02:11:38;100373.56;;;14.67
65316;BMP280;51920;53.952;10.292;2022-09-09T02:14:30;100369.66;;;14.68
65316;BMP280;51920;53.952;10.292;2022-09-09T02:17:03;100371.72;;;14.84
65316;BMP280;51920;53.952;10.292;2022-09-09T02:20:12;100375.28;;;14.81
65316;BMP280;51920;53.952;10.292;2022-09-09T02:22:50;100378.03;;;14.81
65316;BMP280;51920;53.952;10.292;2022-09-09T02:25:20;100372.56;;;14.81
65316;BMP280;51920;53.952;10.292;2022-09-09T02:27:50;100377.22;;;14.80
65316;BMP280;51920;53.952;10.292;2022-09-09T02:30:18;100385.06;;;14.78
65316;BMP280;51920;53.952;10.292;2022-09-09T02:32:52;100380.44;;;14.75
65316;BMP280;51920;53.952;10.292;2022-09-09T02:35:23;100380.44;;;14.75
65316;BMP280;51920;53.952;10.292;2022-09-09T02:37:51;100373.44;;;14.74
65316;BMP280;51920;53.952;10.292;2022-09-09T02:40:18;100377.72;;;14.75
65316;BMP280;51920;53.952;10.292;2022-09-09T02:42:49;100378.91;;;14.74
65316;BMP280;51920;53.952;10.292;2022-09-09T02:45:18;100374.22;;;14.75
65316;BMP280;51920;53.952;10.292;2022-09-09T02:50:20;100371.84;;;14.77
65316;BMP280;51920;53.952;10.292;2022-09-09T02:53:29;100371.44;;;14.78
65316;BMP280;51920;53.952;10.292;2022-09-09T02:56:05;100374.91;;;14.79
65316;BMP280;51920;53.952;10.292;2022-09-09T02:58:37;100379.63;;;14.78
65316;BMP280;51920;53.952;10.292;2022-09-09T03:01:05;100373.41;;;14.78
65316;BMP280;51920;53.952;10.292;2022-09-09T03:03:31;100367.25;;;14.74
65316;BMP280;51920;53.952;10.292;2022-09-09T03:05:59;100379.34;;;14.73
65316;BMP280;51920;53.952;10.292;2022-09-09T03:08:26;100383.25;;;14.72
65316;BMP280;51920;53.952;10.292;2022-09-09T03:10:54;100386.75;;;14.72
65316;BMP280;51920;53.952;10.292;2022-09-09T03:13:20;100382.13;;;14.69
65316;BMP280;51920;53.952;10.292;2022-09-09T03:15:48;100390.56;;;14.75
65316;BMP280;51920;53.952;10.292;2022-09-09T03:18:16;100392.53;;;14.74
65316;BMP280;51920;53.952;10.292;2022-09-09T03:20:46;100386.00;;;14.68
65316;BMP280;51920;53.952;10.292;2022-09-09T03:23:14;100390.66;;;14.71
65316;BMP280;51920;53.952;10.292;2022-09-09T03:25:46;100385.59;;;14.70
65316;BMP280;51920;53.952;10.292;2022-09-09T03:28:12;100394.19;;;14.68
65316;BMP280;51920;53.952;10.292;2022-09-09T03:30:38;100391.47;;;14.68
65316;BMP280;51920;53.952;10.292;2022-09-09T03:33:03;100395.38;;;14.67
65316;BMP280;51920;53.952;10.292;2022-09-09T03:35:32;100381.41;;;14.65
65316;BMP280;51920;53.952;10.292;2022-09-09T03:37:58;100390.28;;;14.69
65316;BMP280;51920;53.952;10.292;2022-09-09T03:40:24;100385.59;;;14.70
65316;BMP280;51920;53.952;10.292;2022-09-09T03:42:49;100381.75;;;14.67
65316;BMP280;51920;53.952;10.292;2022-09-09T03:45:17;100387.56;;;14.69
65316;BMP280;51920;53.952;10.292;2022-09-09T03:47:42;100392.22;;;14.72
65316;BMP280;51920;53.952;10.292;2022-09-09T03:50:09;100395.25;;;14.74
65316;BMP280;51920;53.952;10.292;2022-09-09T03:52:39;100389.13;;;14.70
65316;BMP280;51920;53.952;10.292;2022-09-09T03:55:10;100392.22;;;14.72
65316;BMP280;51920;53.952;10.292;2022-09-09T03:57:36;100386.75;;;14.72
65316;BMP280;51920;53.952;10.292;2022-09-09T04:00:06;100385.88;;;14.75
65316;BMP280;51920;53.952;10.292;2022-09-09T04:02:41;100388.25;;;14.73
65316;BMP280;51920;53.952;10.292;2022-09-09T04:05:09;100387.53;;;14.73
65316;BMP280;51920;53.952;10.292;2022-09-09T04:07:36;100394.06;;;14.75
65316;BMP280;51920;53.952;10.292;2022-09-09T04:10:02;100387.94;;;14.71
65316;BMP280;51920;53.952;10.292;2022-09-09T04:12:29;100382.13;;;14.69
65316;BMP280;51920;53.952;10.292;2022-09-09T04:14:55;100389.06;;;14.74
65316;BMP280;51920;53.952;10.292;2022-09-09T04:17:20;100388.25;;;14.73
65316;BMP280;51920;53.952;10.292;2022-09-09T04:19:45;100378.22;;;14.70
65316;BMP280;51920;53.952;10.292;2022-09-09T04:22:12;100385.25;;;14.68
65316;BMP280;51920;53.952;10.292;2022-09-09T04:24:37;100390.66;;;14.71
65316;BMP280;51920;53.952;10.292;2022-09-09T04:27:03;100398.47;;;14.69
65316;BMP280;51920;53.952;10.292;2022-09-09T04:29:29;100394.97;;;14.69
65316;BMP280;51920;53.952;10.292;2022-09-09T04:31:54;100398.06;;;14.71
65316;BMP280;51920;53.952;10.292;2022-09-09T04:34:20;100397.66;;;14.72
65316;BMP280;51920;53.952;10.292;2022-09-09T04:36:46;100394.56;;;14.70
65316;BMP280;51920;53.952;10.292;2022-09-09T04:39:12;100394.50;;;14.74
65316;BMP280;51920;53.952;10.292;2022-09-09T04:41:37;100392.50;;;14.78
65316;BMP280;51920;53.952;10.292;2022-09-09T04:44:03;100399.16;;;14.73
65316;BMP280;51920;53.952;10.292;2022-09-09T04:46:29;100406.66;;;14.69
65316;BMP280;51920;53.952;10.292;2022-09-09T04:48:55;100400.50;;;14.65
65316;BMP280;51920;53.952;10.292;2022-09-09T04:51:25;100410.53;;;14.68
65316;BMP280;51920;53.952;10.292;2022-09-09T04:53:51;100407.47;;;14.66
65316;BMP280;51920;53.952;10.292;2022-09-09T04:56:19;100410.06;;;14.73
65316;BMP280;51920;53.952;10.292;2022-09-09T04:58:52;100408.91;;;14.74
65316;BMP280;51920;53.952;10.292;2022-09-09T05:01:22;100420.34;;;14.66
65316;BMP280;51920;53.952;10.292;2022-09-09T05:03:49;100412.94;;;14.66
65316;BMP280;51920;53.952;10.292;2022-09-09T05:06:20;100417.25;;;14.64
65316;BMP280;51920;53.952;10.292;2022-09-09T05:08:48;100417.25;;;14.64
65316;BMP280;51920;53.952;10.292;2022-09-09T05:11:21;100434.38;;;14.64
65316;BMP280;51920;53.952;10.292;2022-09-09T05:13:49;100424.25;;;14.65
65316;BMP280;51920;53.952;10.292;2022-09-09T05:16:17;100435.09;;;14.68
65316;BMP280;51920;53.952;10.292;2022-09-09T05:18:43;100419.19;;;14.63
65316;BMP280;51920;53.952;10.292;2022-09-09T05:21:10;100425.69;;;14.73
65316;BMP280;51920;53.952;10.292;2022-09-09T05:23:36;100424.13;;;14.72
65316;BMP280;51920;53.952;10.292;2022-09-09T05:26:03;100428.06;;;14.71
65316;BMP280;51920;53.952;10.292;2022-09-09T05:28:29;100430.38;;;14.72
65316;BMP280;51920;53.952;10.292;2022-09-09T05:31:00;100427.97;;;14.74
65316;BMP280;51920;53.952;10.292;2022-09-09T05:33:27;100421.34;;;14.75
65316;BMP280;51920;53.952;10.292;2022-09-09T05:35:57;100425.63;;;14.76
65316;BMP280;51920;53.952;10.292;2022-09-09T05:38:23;100436.16;;;14.74
65316;BMP280;51920;53.952;10.292;2022-09-09T05:40:52;100433.38;;;14.78
65316;BMP280;51920;53.952;10.292;2022-09-09T05:43:19;100441.44;;;14.85
65316;BMP280;51920;53.952;10.292;2022-09-09T05:45:58;100429.81;;;14.81
65316;BMP280;51920;53.952;10.292;2022-09-09T05:48:28;100445.38;;;14.80
65316;BMP280;51920;53.952;10.292;2022-09-09T05:50:54;100440.31;;;14.82
65316;BMP280;51920;53.952;10.292;2022-09-09T05:53:20;100443.47;;;14.81
65316;BMP280;51920;53.952;10.292;2022-09-09T05:55:46;100438.78;;;14.81
65316;BMP280;51920;53.952;10.292;2022-09-09T05:58:13;100440.63;;;14.88
65316;BMP280;51920;53.952;10.292;2022-09-09T06:00:39;100439.75;;;14.91
65316;BMP280;51920;53.952;10.292;2022-09-09T06:03:05;100447.59;;;14.89
65316;BMP280;51920;53.952;10.292;2022-09-09T06:05:30;100446.34;;;14.94
65316;BMP280;51920;53.952;10.292;2022-09-09T06:07:56;100454.06;;;14.99
65316;BMP280;51920;53.952;10.292;2022-09-09T06:10:22;100458.03;;;14.94
65316;BMP280;51920;53.952;10.292;2022-09-09T06:12:48;100455.72;;;14.93
65316;BMP280;51920;53.952;10.292;2022-09-09T06:15:13;100454.53;;;14.94
65316;BMP280;51920;53.952;10.292;2022-09-09T06:17:39;100470.50;;;14.95
65316;BMP280;51920;53.952;10.292;2022-09-09T06:20:05;100469.34;;;14.93
65316;BMP280;51920;53.952;10.292;2022-09-09T06:22:31;100470.06;;;14.97
65316;BMP280;51920;53.952;10.292;2022-09-09T06:24:56;100480.53;;;14.98
65316;BMP280;51920;53.952;10.292;2022-09-09T06:27:22;100483.22;;;15.02
65316;BMP280;51920;53.952;10.292;2022-09-09T06:29:47;100474.00;;;14.96
65316;BMP280;51920;53.952;10.292;2022-09-09T06:32:14;100482.88;;;15.00
65316;BMP280;51920;53.952;10.292;2022-09-09T06:34:40;100483.22;;;15.02
65316;BMP280;51920;53.952;10.292;2022-09-09T06:37:05;100480.50;;;15.02
65316;BMP280;51920;53.952;10.292;2022-09-09T06:39:37;100481.09;;;15.13
65316;BMP280;51920;53.952;10.292;2022-09-09T06:42:02;100490.38;;;15.16
65316;BMP280;51920;53.952;10.292;2022-09-09T06:44:44;100480.94;;;15.20
65316;BMP280;51920;53.952;10.292;2022-09-09T06:47:14;100483.22;;;15.25
65316;BMP280;51920;53.952;10.292;2022-09-09T06:49:41;100485.75;;;15.36
65316;BMP280;51920;53.952;10.292;2022-09-09T06:52:09;100485.66;;;15.40
65316;BMP280;51920;53.952;10.292;2022-09-09T06:54:35;100482.31;;;15.52
65316;BMP280;51920;53.952;10.292;2022-09-09T06:57:03;100485.78;;;15.73
65316;BMP280;51920;53.952;10.292;2022-09-09T06:59:28;100482.41;;;15.85
65316;BMP280;51920;53.952;10.292;2022-09-09T07:01:57;100484.28;;;15.88
65316;BMP280;51920;53.952;10.292;2022-09-09T07:04:23;100486.19;;;15.91
65316;BMP280;51920;53.952;10.292;2022-09-09T07:06:50;100485.31;;;15.94
65316;BMP280;51920;53.952;10.292;2022-09-09T07:09:21;100485.41;;;15.90
65316;BMP280;51920;53.952;10.292;2022-09-09T07:11:50;100486.34;;;15.84
65316;BMP280;51920;53.952;10.292;2022-09-09T07:14:18;100486.69;;;15.86
65316;BMP280;51920;53.952;10.292;2022-09-09T07:16:47;100490.78;;;15.94
65316;BMP280;51920;53.952;10.292;2022-09-09T07:19:15;100501.78;;;16.27
65316;BMP280;51920;53.952;10.292;2022-09-09T07:21:42;100497.53;;;16.75
65316;BMP280;51920;53.952;10.292;2022-09-09T07:24:10;100496.50;;;16.85
65316;BMP280;51920;53.952;10.292;2022-09-09T07:26:38;100495.25;;;16.90
65316;BMP280;51920;53.952;10.292;2022-09-09T07:29:04;100500.78;;;16.86
65316;BMP280;51920;53.952;10.292;2022-09-09T07:31:34;100488.38;;;16.82
65316;BMP280;51920;53.952;10.292;2022-09-09T07:34:04;100489.41;;;16.71
65316;BMP280;51920;53.952;10.292;2022-09-09T07:36:32;100490.28;;;16.68
65316;BMP280;51920;53.952;10.292;2022-09-09T07:39:10;100491.66;;;16.60
65316;BMP280;51920;53.952;10.292;2022-09-09T07:41:47;100501.53;;;16.54
65316;BMP280;51920;53.952;10.292;2022-09-09T07:44:21;100497.88;;;16.61
65316;BMP280;51920;53.952;10.292;2022-09-09T07:46:50;100495.31;;;16.86
65316;BMP280;51920;53.952;10.292;2022-09-09T07:49:19;100502.78;;;17.15
65316;BMP280;51920;53.952;10.292;2022-09-09T07:51:46;100496.56;;;17.56
65316;BMP280;51920;53.952;10.292;2022-09-09T07:54:15;100501.63;;;17.71
65316;BMP280;51920;53.952;10.292;2022-09-09T07:56:43;100496.56;;;17.56
65316;BMP280;51920;53.952;10.292;2022-09-09T07:59:10;100498.75;;;17.74
65316;BMP280;51920;53.952;10.292;2022-09-09T08:01:43;100493.72;;;17.73
65316;BMP280;51920;53.952;10.292;2022-09-09T08:04:15;100497.66;;;17.72
65316;BMP280;51920;53.952;10.292;2022-09-09T08:06:50;100504.94;;;17.78
65316;BMP280;51920;53.952;10.292;2022-09-09T08:09:17;100506.44;;;17.92
65316;BMP280;51920;53.952;10.292;2022-09-09T08:11:45;100514.94;;;18.10
65316;BMP280;51920;53.952;10.292;2022-09-09T08:14:11;100517.88;;;18.03
65316;BMP280;51920;53.952;10.292;2022-09-09T08:16:46;100520.84;;;18.09
65316;BMP280;51920;53.952;10.292;2022-09-09T08:19:15;100518.84;;;18.22
65316;BMP280;51920;53.952;10.292;2022-09-09T08:21:43;100519.31;;;18.33
65316;BMP280;51920;53.952;10.292;2022-09-09T08:24:10;100513.56;;;18.41
65316;BMP280;51920;53.952;10.292;2022-09-09T08:26:40;100513.28;;;18.39
65316;BMP280;51920;53.952;10.292;2022-09-09T08:29:12;100516.88;;;18.35
65316;BMP280;51920;53.952;10.292;2022-09-09T08:34:10;100518.63;;;18.29
65316;BMP280;51920;53.952;10.292;2022-09-09T08:36:42;100518.28;;;18.27
65316;BMP280;51920;53.952;10.292;2022-09-09T08:39:09;100523.78;;;18.27
65316;BMP280;51920;53.952;10.292;2022-09-09T08:47:53;100530.28;;;18.33
65316;BMP280;51920;53.952;10.292;2022-09-09T08:50:26;100528.72;;;18.32
65316;BMP280;51920;53.952;10.292;2022-09-09T08:53:05;100528.72;;;18.32
65316;BMP280;51920;53.952;10.292;2022-09-09T08:55:42;100536.06;;;18.35
65316;BMP280;51920;53.952;10.292;2022-09-09T08:58:14;100540.91;;;18.44
65316;BMP280;51920;53.952;10.292;2022-09-09T09:03:26;100536.72;;;18.27
65316;BMP280;51920;53.952;10.292;2022-09-09T09:11:24;100554.94;;;18.33
65316;BMP280;51920;53.952;10.292;2022-09-09T09:14:02;100549.00;;;18.35
65316;BMP280;51920;53.952;10.292;2022-09-09T09:19:13;100548.00;;;18.42
65316;BMP280;51920;53.952;10.292;2022-09-09T09:21:59;100560.84;;;18.45
65316;BMP280;51920;53.952;10.292;2022-09-09T09:27:16;100543.84;;;18.50
65316;BMP280;51920;53.952;10.292;2022-09-09T09:29:49;100550.88;;;18.51
65316;BMP280;51920;53.952;10.292;2022-09-09T09:32:18;100549.22;;;18.53
65316;BMP280;51920;53.952;10.292;2022-09-09T09:34:58;100553.19;;;18.87
65316;BMP280;51920;53.952;10.292;2022-09-09T09:37:34;100544.53;;;19.45
65316;BMP280;51920;53.952;10.292;2022-09-09T09:40:16;100544.06;;;20.09
65316;BMP280;51920;53.952;10.292;2022-09-09T09:45:27;100549.59;;;20.18
65316;BMP280;51920;53.952;10.292;2022-09-09T09:48:00;100550.13;;;19.95
65316;BMP280;51920;53.952;10.292;2022-09-09T09:50:28;100559.06;;;19.77
65316;BMP280;51920;53.952;10.292;2022-09-09T09:52:59;100553.50;;;19.68
65316;BMP280;51920;53.952;10.292;2022-09-09T09:55:29;100551.16;;;19.57
65316;BMP280;51920;53.952;10.292;2022-09-09T09:58:04;100545.22;;;19.59
65316;BMP280;51920;53.952;10.292;2022-09-09T10:00:30;100554.97;;;19.82
65316;BMP280;51920;53.952;10.292;2022-09-09T10:03:20;100553.31;;;19.93
65316;BMP280;51920;53.952;10.292;2022-09-09T10:05:46;100552.34;;;20.18
65316;BMP280;51920;53.952;10.292;2022-09-09T10:08:14;100546.59;;;20.35
65316;BMP280;51920;53.952;10.292;2022-09-09T10:10:59;100550.72;;;20.39
65316;BMP280;51920;53.952;10.292;2022-09-09T10:18:59;100555.84;;;20.59
65316;BMP280;51920;53.952;10.292;2022-09-09T10:21:57;100548.34;;;20.97
65316;BMP280;51920;53.952;10.292;2022-09-09T10:27:36;100544.13;;;21.90
65316;BMP280;51920;53.952;10.292;2022-09-09T10:30:19;100555.34;;;22.19
65316;BMP280;51920;53.952;10.292;2022-09-09T10:32:48;100564.53;;;22.40
65316;BMP280;51920;53.952;10.292;2022-09-09T10:35:34;100554.03;;;22.54
65316;BMP280;51920;53.952;10.292;2022-09-09T10:40:38;100556.28;;;22.16
65316;BMP280;51920;53.952;10.292;2022-09-09T10:43:13;100559.72;;;22.50
65316;BMP280;51920;53.952;10.292;2022-09-09T10:45:49;100555.88;;;22.33
65316;BMP280;51920;53.952;10.292;2022-09-09T10:48:47;100554.78;;;21.73
65316;BMP280;51920;53.952;10.292;2022-09-09T10:51:48;100560.63;;;21.99
65316;BMP280;51920;53.952;10.292;2022-09-09T10:57:27;100557.75;;;21.93
65316;BMP280;51920;53.952;10.292;2022-09-09T10:59:58;100564.63;;;22.31
65316;BMP280;51920;53.952;10.292;2022-09-09T11:02:30;100556.25;;;22.40
65316;BMP280;51920;53.952;10.292;2022-09-09T11:05:04;100558.41;;;22.60
65316;BMP280;51920;53.952;10.292;2022-09-09T11:07:39;100552.16;;;22.12
65316;BMP280;51920;53.952;10.292;2022-09-09T11:10:34;100552.19;;;22.02
65316;BMP280;51920;53.952;10.292;2022-09-09T11:13:07;100551.81;;;21.86
65316;BMP280;51920;53.952;10.292;2022-09-09T11:15:39;100556.28;;;21.74
65316;BMP280;51920;53.952;10.292;2022-09-09T11:18:11;100552.50;;;21.71
65316;BMP280;51920;53.952;10.292;2022-09-09T11:20:38;100559.03;;;21.83
65316;BMP280;51920;53.952;10.292;2022-09-09T11:23:21;100553.94;;;21.91
65316;BMP280;51920;53.952;10.292;2022-09-09T11:25:53;100555.78;;;21.94
65316;BMP280;51920;53.952;10.292;2022-09-09T11:33:49;100560.78;;;22.29
65316;BMP280;51920;53.952;10.292;2022-09-09T11:38:53;100562.44;;;21.78
65316;BMP280;51920;53.952;10.292;2022-09-09T11:41:22;100557.84;;;21.75
65316;BMP280;51920;53.952;10.292;2022-09-09T11:43:49;100565.22;;;22.02
65316;BMP280;51920;53.952;10.292;2022-09-09T11:46:21;100564.38;;;22.20
65316;BMP280;51920;53.952;10.292;2022-09-09T11:48:59;100566.22;;;21.80
65316;BMP280;51920;53.952;10.292;2022-09-09T11:51:27;100568.91;;;21.66
65316;BMP280;51920;53.952;10.292;2022-09-09T11:53:56;100569.91;;;21.87
65316;BMP280;51920;53.952;10.292;2022-09-09T11:56:43;100573.81;;;22.04
65316;BMP280;51920;53.952;10.292;2022-09-09T11:59:30;100577.91;;;22.09
65316;BMP280;51920;53.952;10.292;2022-09-09T12:02:00;100574.63;;;21.86
65316;BMP280;51920;53.952;10.292;2022-09-09T12:04:37;100562.66;;;21.89
65316;BMP280;51920;53.952;10.292;2022-09-09T12:12:44;100563.88;;;21.97
65316;BMP280;51920;53.952;10.292;2022-09-09T12:17:49;100561.69;;;22.01
65316;BMP280;51920;53.952;10.292;2022-09-09T12:20:21;100556.00;;;21.72
65316;BMP280;51920;53.952;10.292;2022-09-09T12:28:18;100558.13;;;21.77
65316;BMP280;51920;53.952;10.292;2022-09-09T12:31:06;100562.44;;;21.78
65316;BMP280;51920;53.952;10.292;2022-09-09T12:33:38;100557.16;;;21.89
65316;BMP280;51920;53.952;10.292;2022-09-09T12:36:13;100555.28;;;21.95
65316;BMP280;51920;53.952;10.292;2022-09-09T12:38:41;100551.31;;;21.96
65316;BMP280;51920;53.952;10.292;2022-09-09T12:41:22;100560.63;;;21.99
65316;BMP280;51920;53.952;10.292;2022-09-09T12:43:47;100551.06;;;21.85
65316;BMP280;51920;53.952;10.292;2022-09-09T12:46:22;100546.72;;;21.93
65316;BMP280;51920;53.952;10.292;2022-09-09T12:48:52;100555.09;;;22.32
65316;BMP280;51920;53.952;10.292;2022-09-09T12:51:28;100553.78;;;22.28
65316;BMP280;51920;53.952;10.292;2022-09-09T12:53:55;100554.28;;;22.17
65316;BMP280;51920;53.952;10.292;2022-09-09T12:56:23;100547.59;;;22.33
65316;BMP280;51920;53.952;10.292;2022-09-09T12:58:52;100543.19;;;22.26
65316;BMP280;51920;53.952;10.292;2022-09-09T13:01:25;100557.56;;;22.30
65316;BMP280;51920;53.952;10.292;2022-09-09T13:03:51;100549.59;;;22.32
65316;BMP280;51920;53.952;10.292;2022-09-09T13:06:24;100549.09;;;22.34
65316;BMP280;51920;53.952;10.292;2022-09-09T13:08:51;100552.03;;;22.30
65316;BMP280;51920;53.952;10.292;2022-09-09T13:11:21;100538.41;;;22.26
65316;BMP280;51920;53.952;10.292;2022-09-09T13:13:56;100548.66;;;22.35
65316;BMP280;51920;53.952;10.292;2022-09-09T13:16:31;100538.28;;;22.21
65316;BMP280;51920;53.952;10.292;2022-09-09T13:19:09;100550.00;;;22.16
65316;BMP280;51920;53.952;10.292;2022-09-09T13:21:39;100543.81;;;22.21
65316;BMP280;51920;53.952;10.292;2022-09-09T13:24:06;100542.03;;;22.09
65316;BMP280;51920;53.952;10.292;2022-09-09T13:26:34;100540.53;;;22.08
65316;BMP280;51920;53.952;10.292;2022-09-09T13:29:18;100548.88;;;22.22
65316;BMP280;51920;53.952;10.292;2022-09-09T13:31:44;100549.72;;;22.05
65316;BMP280;51920;53.952;10.292;2022-09-09T13:34:30;100557.06;;;22.08
65316;BMP280;51920;53.952;10.292;2022-09-09T13:36:59;100543.28;;;21.74
65316;BMP280;51920;53.952;10.292;2022-09-09T13:39:27;100545.72;;;21.82
65316;BMP280;51920;53.952;10.292;2022-09-09T13:41:53;100550.19;;;21.70
65316;BMP280;51920;53.952;10.292;2022-09-09T13:44:30;100550.09;;;21.55
65316;BMP280;51920;53.952;10.292;2022-09-09T13:47:18;100547.34;;;21.55
65316;BMP280;51920;53.952;10.292;2022-09-09T13:49:44;100545.72;;;21.39
65316;BMP280;51920;53.952;10.292;2022-09-09T13:52:18;100556.09;;;21.35
65316;BMP280;51920;53.952;10.292;2022-09-09T13:54:51;100548.03;;;21.13
65316;BMP280;51920;53.952;10.292;2022-09-09T13:57:19;100557.81;;;21.05
65316;BMP280;51920;53.952;10.292;2022-09-09T13:59:45;100555.50;;;21.03
65316;BMP280;51920;53.952;10.292;2022-09-09T14:02:11;100552.16;;;21.08
65316;BMP280;51920;53.952;10.292;2022-09-09T14:04:37;100547.59;;;21.15
65316;BMP280;51920;53.952;10.292;2022-09-09T14:07:02;100557.34;;;21.34
65316;BMP280;51920;53.952;10.292;2022-09-09T14:09:28;100548.47;;;21.21
65316;BMP280;51920;53.952;10.292;2022-09-09T14:11:54;100560.41;;;21.18
65316;BMP280;51920;53.952;10.292;2022-09-09T14:14:20;100570.22;;;21.19
65316;BMP280;51920;53.952;10.292;2022-09-09T14:16:46;100569.44;;;21.00
65316;BMP280;51920;53.952;10.292;2022-09-09T14:19:11;100582.75;;;20.92
65316;BMP280;51920;53.952;10.292;2022-09-09T14:21:37;100569.75;;;20.74
65316;BMP280;51920;53.952;10.292;2022-09-09T14:24:02;100572.94;;;20.63
65316;BMP280;51920;53.952;10.292;2022-09-09T14:26:28;100574.75;;;20.57
65316;BMP280;51920;53.952;10.292;2022-09-09T14:28:55;100575.69;;;20.54
65316;BMP280;51920;53.952;10.292;2022-09-09T14:31:22;100573.19;;;20.38
65316;BMP280;51920;53.952;10.292;2022-09-09T14:33:48;100575.03;;;20.41
65316;BMP280;51920;53.952;10.292;2022-09-09T14:36:13;100580.22;;;20.39
65316;BMP280;51920;53.952;10.292;2022-09-09T14:38:40;100577.47;;;20.30
65316;BMP280;51920;53.952;10.292;2022-09-09T14:41:08;100581.56;;;20.25
65316;BMP280;51920;53.952;10.292;2022-09-09T14:43:34;100572.56;;;20.34
65316;BMP280;51920;53.952;10.292;2022-09-09T14:46:07;100564.28;;;20.15
65316;BMP280;51920;53.952;10.292;2022-09-09T14:48:33;100560.44;;;20.13
65316;BMP280;51920;53.952;10.292;2022-09-09T14:51:13;100557.22;;;20.14
65316;BMP280;51920;53.952;10.292;2022-09-09T14:53:40;100552.94;;;20.13
65316;BMP280;51920;53.952;10.292;2022-09-09T14:56:19;100558.38;;;20.04
65316;BMP280;51920;53.952;10.292;2022-09-09T14:58:45;100547.84;;;20.03
65316;BMP280;51920;53.952;10.292;2022-09-09T15:01:14;100550.19;;;20.13
65316;BMP280;51920;53.952;10.292;2022-09-09T15:03:40;100540.06;;;20.01
65316;BMP280;51920;53.952;10.292;2022-09-09T15:06:11;100541.75;;;19.99
65316;BMP280;51920;53.952;10.292;2022-09-09T15:08:40;100543.53;;;19.92
65316;BMP280;51920;53.952;10.292;2022-09-09T15:11:06;100550.38;;;19.88
65316;BMP280;51920;53.952;10.292;2022-09-09T15:13:35;100548.41;;;19.88
65316;BMP280;51920;53.952;10.292;2022-09-09T15:18:31;100558.16;;;19.80
65316;BMP280;51920;53.952;10.292;2022-09-09T15:20:59;100555.59;;;19.86
65316;BMP280;51920;53.952;10.292;2022-09-09T15:23:25;100552.78;;;19.77
65316;BMP280;51920;53.952;10.292;2022-09-09T15:25:51;100553.56;;;19.77
65316;BMP280;51920;53.952;10.292;2022-09-09T15:28:17;100553.41;;;19.81
65316;BMP280;51920;53.952;10.292;2022-09-09T15:30:42;100550.47;;;19.75
65316;BMP280;51920;53.952;10.292;2022-09-09T15:33:10;100549.41;;;19.72
65316;BMP280;51920;53.952;10.292;2022-09-09T15:35:35;100550.13;;;19.64
65316;BMP280;51920;53.952;10.292;2022-09-09T15:38:04;100549.78;;;19.62
65316;BMP280;51920;53.952;10.292;2022-09-09T15:40:32;100555.00;;;19.60
65316;BMP280;51920;53.952;10.292;2022-09-09T15:42:58;100555.22;;;19.53
65316;BMP280;51920;53.952;10.292;2022-09-09T15:45:23;100555.03;;;19.47
65316;BMP280;51920;53.952;10.292;2022-09-09T15:47:49;100562.66;;;19.43